createdAt,value
2018-09-05T00:00:50.512Z,13.20
2018-09-05T00:03:17.426Z,13.15
2018-09-05T00:05:44.444Z,13.18
2018-09-05T00:08:11.366Z,13.16
2018-09-05T00:10:38.553Z,13.13
2018-09-05T00:13:05.714Z,13.04
2018-09-05T00:15:32.647Z,13.03
2018-09-05T00:17:59.594Z,13.01
2018-09-05T00:20:26.544Z,12.95
2018-09-05T00:22:53.440Z,12.97
2018-09-05T00:25:20.397Z,12.98
2018-09-05T00:27:47.354Z,12.91
2018-09-05T00:30:14.315Z,12.93
2018-09-05T00:32:41.257Z,12.87
2018-09-05T00:35:08.188Z,12.93
2018-09-05T00:37:35.112Z,12.93
2018-09-05T00:40:02.037Z,12.93
2018-09-05T00:42:28.965Z,12.95
2018-09-05T00:45:02.577Z,12.92
2018-09-05T00:47:29.513Z,12.85
2018-09-05T00:49:58.841Z,12.78
2018-09-05T00:52:26.387Z,12.80
2018-09-05T00:54:53.622Z,12.84
2018-09-05T00:57:20.546Z,12.82
2018-09-05T00:59:47.512Z,12.74
2018-09-05T01:02:14.449Z,12.74
2018-09-05T01:04:41.369Z,12.73
2018-09-05T01:07:21.904Z,12.80
2018-09-05T01:09:48.839Z,12.76
2018-09-05T01:12:16.289Z,12.69
2018-09-05T01:14:43.332Z,12.69
2018-09-05T01:17:10.590Z,12.71
2018-09-05T01:19:37.560Z,12.72
2018-09-05T01:22:04.484Z,12.68
2018-09-05T01:24:31.409Z,12.64
2018-09-05T01:26:58.355Z,12.65
2018-09-05T01:29:25.304Z,12.68
2018-09-05T01:31:52.220Z,12.67
2018-09-05T01:34:19.146Z,12.64
2018-09-05T01:36:46.072Z,12.62
2018-09-05T01:39:13.052Z,12.62
2018-09-05T01:41:39.989Z,12.56
2018-09-05T01:44:06.896Z,12.60
2018-09-05T01:46:33.829Z,12.57
2018-09-05T01:49:00.747Z,12.54
2018-09-05T01:51:31.892Z,12.51
2018-09-05T01:53:58.819Z,12.54
2018-09-05T01:56:25.740Z,12.51
2018-09-05T01:58:52.649Z,12.53
2018-09-05T02:01:19.580Z,12.54
2018-09-05T02:03:46.552Z,12.52
2018-09-05T02:06:13.501Z,12.45
2018-09-05T02:08:40.425Z,12.41
2018-09-05T02:11:07.337Z,12.38
2018-09-05T02:13:34.248Z,12.41
2018-09-05T02:16:01.156Z,12.45
2018-09-05T02:18:28.086Z,12.43
2018-09-05T02:20:55.001Z,12.39
2018-09-05T02:23:21.983Z,12.38
2018-09-05T02:25:48.906Z,12.39
2018-09-05T02:28:15.821Z,12.39
2018-09-05T02:30:42.720Z,12.38
2018-09-05T02:33:09.632Z,12.41
2018-09-05T02:35:36.544Z,12.43
2018-09-05T02:38:03.480Z,12.43
2018-09-05T02:40:30.445Z,12.41
2018-09-05T02:42:57.349Z,12.34
2018-09-05T02:45:24.268Z,12.39
2018-09-05T02:47:51.213Z,12.32
2018-09-05T02:50:18.140Z,12.31
2018-09-05T02:52:45.101Z,12.29
2018-09-05T02:55:16.632Z,12.26
2018-09-05T02:57:43.560Z,12.19
2018-09-05T03:00:10.486Z,12.17
2018-09-05T03:02:37.421Z,12.13
2018-09-05T03:05:04.348Z,12.11
2018-09-05T03:07:31.248Z,12.13
2018-09-05T03:09:58.165Z,12.04
2018-09-05T03:12:25.084Z,12.07
2018-09-05T03:14:52.327Z,12.09
2018-09-05T03:17:19.587Z,12.12
2018-09-05T03:19:46.541Z,12.10
2018-09-05T03:22:13.433Z,12.03
2018-09-05T03:24:40.375Z,12.01
2018-09-05T03:27:07.388Z,12.00
2018-09-05T03:29:34.329Z,12.03
2018-09-05T03:32:01.599Z,12.04
2018-09-05T03:34:28.536Z,12.03
2018-09-05T03:36:55.454Z,11.93
2018-09-05T03:39:22.405Z,11.97
2018-09-05T03:41:49.315Z,11.91
2018-09-05T03:44:16.229Z,11.93
2018-09-05T03:46:43.129Z,11.94
2018-09-05T03:49:10.061Z,11.95
2018-09-05T03:51:36.964Z,11.91
2018-09-05T03:54:03.912Z,11.90
2018-09-05T03:56:30.846Z,11.90
2018-09-05T03:58:57.795Z,11.87
2018-09-05T04:01:24.733Z,11.89
2018-09-05T04:03:51.681Z,12.00
2018-09-05T04:06:19.522Z,12.07
2018-09-05T04:08:46.449Z,12.25
2018-09-05T04:11:13.357Z,12.28
2018-09-05T04:13:40.269Z,12.25
2018-09-05T04:16:07.169Z,12.23
2018-09-05T04:18:34.102Z,12.25
2018-09-05T04:21:00.998Z,12.26
2018-09-05T04:23:32.549Z,12.29
2018-09-05T04:25:59.461Z,12.29
2018-09-05T04:28:26.358Z,12.31
2018-09-05T04:30:53.245Z,12.38
2018-09-05T04:33:20.172Z,12.44
2018-09-05T04:35:47.136Z,12.47
2018-09-05T04:38:14.063Z,12.52
2018-09-05T04:40:40.977Z,12.57
2018-09-05T04:43:07.869Z,12.61
2018-09-05T04:45:34.797Z,12.71
2018-09-05T04:48:01.712Z,12.85
2018-09-05T04:50:28.657Z,12.92
2018-09-05T04:52:55.557Z,12.99
2018-09-05T04:55:22.461Z,13.07
2018-09-05T04:57:49.386Z,13.13
2018-09-05T05:00:16.321Z,13.18
2018-09-05T05:02:43.240Z,13.24
2018-09-05T05:05:10.150Z,13.29
2018-09-05T05:07:37.120Z,13.36
2018-09-05T05:10:04.062Z,13.43
2018-09-05T05:12:31.017Z,13.48
2018-09-05T05:14:57.919Z,13.56
2018-09-05T05:17:24.797Z,13.59
2018-09-05T05:19:51.710Z,13.67
2018-09-05T05:22:18.598Z,13.73
2018-09-05T05:24:45.498Z,13.80
2018-09-05T05:27:12.400Z,13.89
2018-09-05T05:29:39.337Z,14.00
2018-09-05T05:32:06.261Z,14.06
2018-09-05T05:34:33.194Z,14.09
2018-09-05T05:37:00.072Z,14.09
2018-09-05T05:39:27.754Z,14.18
2018-09-05T05:41:54.664Z,14.26
2018-09-05T05:44:21.553Z,14.32
2018-09-05T05:46:48.481Z,14.39
2018-09-05T05:49:15.341Z,14.55
2018-09-05T05:51:42.253Z,14.61
2018-09-05T05:54:09.132Z,14.58
2018-09-05T05:56:36.038Z,14.59
2018-09-05T05:59:02.983Z,14.63
2018-09-05T06:01:29.887Z,14.62
2018-09-05T06:03:56.785Z,14.67
2018-09-05T06:06:23.880Z,14.74
2018-09-05T06:08:50.636Z,14.82
2018-09-05T06:11:17.549Z,15.02
2018-09-05T06:13:44.454Z,15.11
2018-09-05T06:16:11.357Z,15.08
2018-09-05T06:18:39.186Z,15.09
2018-09-05T06:21:06.136Z,15.17
2018-09-05T06:23:33.023Z,15.27
2018-09-05T06:25:59.933Z,15.43
2018-09-05T06:28:26.861Z,15.52
2018-09-05T06:30:53.786Z,15.56
2018-09-05T06:33:20.675Z,15.58
2018-09-05T06:35:47.605Z,15.63
2018-09-05T06:38:14.520Z,15.72
2018-09-05T06:40:41.450Z,15.80
2018-09-05T06:43:08.352Z,15.85
2018-09-05T06:45:35.289Z,15.92
2018-09-05T06:48:02.222Z,16.01
2018-09-05T06:50:29.125Z,16.16
2018-09-05T06:52:56.040Z,16.31
2018-09-05T06:55:22.955Z,16.49
2018-09-05T06:57:49.927Z,16.74
2018-09-05T07:00:17.720Z,16.77
2018-09-05T07:02:44.701Z,16.81
2018-09-05T07:05:11.690Z,16.99
2018-09-05T07:07:38.641Z,17.31
2018-09-05T07:10:05.644Z,17.33
2018-09-05T07:12:32.505Z,17.29
2018-09-05T07:14:59.436Z,17.20
2018-09-05T07:17:26.367Z,17.23
2018-09-05T07:19:53.257Z,17.36
2018-09-05T07:22:20.146Z,17.40
2018-09-05T07:24:47.070Z,17.48
2018-09-05T07:27:13.986Z,17.54
2018-09-05T07:29:40.881Z,17.80
2018-09-05T07:32:07.823Z,17.94
2018-09-05T07:34:34.740Z,18.01
2018-09-05T07:37:01.641Z,18.17
2018-09-05T07:39:28.574Z,18.16
2018-09-05T07:41:55.509Z,18.16
2018-09-05T07:44:22.402Z,18.16
2018-09-05T07:46:49.376Z,18.16
2018-09-05T07:49:16.268Z,18.34
2018-09-05T07:51:43.198Z,18.52
2018-09-05T07:54:10.105Z,18.58
2018-09-05T07:56:37.087Z,18.78
2018-09-05T07:59:04.026Z,18.91
2018-09-05T08:01:30.937Z,18.81
2018-09-05T08:03:57.994Z,18.68
2018-09-05T08:06:24.937Z,18.59
2018-09-05T08:08:51.842Z,18.59
2018-09-05T08:11:18.745Z,18.60
2018-09-05T08:13:45.669Z,18.92
2018-09-05T08:16:12.654Z,19.28
2018-09-05T08:18:39.894Z,19.51
2018-09-05T08:21:06.789Z,19.76
2018-09-05T08:23:33.708Z,19.67
2018-09-05T08:26:00.637Z,19.67
2018-09-05T08:28:27.564Z,19.49
2018-09-05T08:30:54.458Z,19.25
2018-09-05T08:33:21.368Z,19.11
2018-09-05T08:35:48.502Z,19.14
2018-09-05T08:38:15.274Z,19.41
2018-09-05T08:40:42.169Z,20.06
2018-09-05T08:43:09.064Z,20.30
2018-09-05T08:45:36.129Z,19.96
2018-09-05T08:48:02.934Z,19.65
2018-09-05T08:50:29.813Z,19.40
2018-09-05T08:52:56.731Z,19.57
2018-09-05T08:55:23.691Z,20.39
2018-09-05T08:57:50.592Z,21.01
2018-09-05T09:00:17.522Z,21.25
2018-09-05T09:02:44.434Z,21.77
2018-09-05T09:05:11.353Z,21.93
2018-09-05T09:07:38.398Z,22.02
2018-09-05T09:10:05.616Z,22.35
2018-09-05T09:12:32.553Z,22.11
2018-09-05T09:14:59.440Z,21.68
2018-09-05T09:17:26.385Z,21.49
2018-09-05T09:19:53.329Z,21.29
2018-09-05T09:22:20.253Z,21.09
2018-09-05T09:24:47.189Z,21.28
2018-09-05T09:27:14.142Z,22.22
2018-09-05T09:29:41.045Z,22.71
2018-09-05T09:32:07.945Z,22.86
2018-09-05T09:34:34.830Z,22.89
2018-09-05T09:37:01.772Z,22.83
2018-09-05T09:39:28.693Z,23.05
2018-09-05T09:41:55.594Z,22.91
2018-09-05T09:44:22.549Z,23.16
2018-09-05T09:46:49.525Z,23.62
2018-09-05T09:49:16.448Z,24.07
2018-09-05T09:51:43.357Z,24.36
2018-09-05T09:54:10.264Z,24.29
2018-09-05T09:56:37.245Z,24.10
2018-09-05T09:59:04.353Z,24.28
2018-09-05T10:01:37.418Z,24.50
2018-09-05T10:04:10.091Z,24.23
2018-09-05T10:06:41.775Z,23.52
2018-09-05T10:09:14.340Z,22.85
2018-09-05T10:11:47.033Z,22.16
2018-09-05T10:14:19.998Z,22.25
2018-09-05T10:16:53.247Z,23.18
2018-09-05T10:19:20.190Z,23.43
2018-09-05T10:21:47.121Z,23.58
2018-09-05T10:24:14.062Z,23.34
2018-09-05T10:26:40.972Z,23.16
2018-09-05T10:29:07.942Z,23.42
2018-09-05T10:31:34.890Z,24.15
2018-09-05T10:34:01.849Z,24.37
2018-09-05T10:36:28.762Z,24.72
2018-09-05T10:38:55.690Z,24.77
2018-09-05T10:41:22.608Z,25.01
2018-09-05T10:43:49.574Z,24.87
2018-09-05T10:46:16.510Z,24.85
2018-09-05T10:48:43.426Z,24.93
2018-09-05T10:51:10.333Z,25.40
2018-09-05T10:53:37.238Z,25.92
2018-09-05T10:56:04.142Z,26.15
2018-09-05T10:58:31.060Z,26.71
2018-09-05T11:00:58.118Z,25.86
2018-09-05T11:03:25.001Z,24.83
2018-09-05T11:05:51.920Z,24.30
2018-09-05T11:08:18.801Z,24.83
2018-09-05T11:10:45.766Z,25.30
2018-09-05T11:13:12.638Z,25.41
2018-09-05T11:15:39.578Z,25.78
2018-09-05T11:18:06.496Z,25.05
2018-09-05T11:20:33.429Z,24.07
2018-09-05T11:23:00.324Z,23.27
2018-09-05T11:25:27.237Z,22.96
2018-09-05T11:27:54.141Z,23.04
2018-09-05T11:30:21.067Z,23.40
2018-09-05T11:32:48.034Z,23.06
2018-09-05T11:35:14.980Z,22.80
2018-09-05T11:37:41.900Z,22.51
2018-09-05T11:40:09.601Z,23.01
2018-09-05T11:42:36.501Z,23.18
2018-09-05T11:45:03.498Z,22.88
2018-09-05T11:47:30.417Z,23.04
2018-09-05T11:49:57.377Z,23.77
2018-09-05T11:52:24.285Z,23.95
2018-09-05T11:54:51.189Z,24.45
2018-09-05T11:57:18.100Z,24.30
2018-09-05T11:59:44.994Z,24.64
2018-09-05T12:02:12.965Z,24.75
2018-09-05T12:04:39.869Z,24.97
2018-09-05T12:07:07.132Z,24.62
2018-09-05T12:09:34.066Z,24.86
2018-09-05T12:12:01.043Z,25.14
2018-09-05T12:14:27.960Z,25.23
2018-09-05T12:16:54.888Z,25.18
2018-09-05T12:19:21.833Z,25.32
2018-09-05T12:21:48.773Z,25.69
2018-09-05T12:24:15.802Z,26.29
2018-09-05T12:26:42.706Z,25.96
2018-09-05T12:29:10.999Z,25.93
2018-09-05T12:31:38.153Z,25.65
2018-09-05T12:34:05.053Z,25.54
2018-09-05T12:36:31.993Z,25.84
2018-09-05T12:38:58.966Z,26.13
2018-09-05T12:41:25.933Z,25.99
2018-09-05T12:43:52.845Z,25.15
2018-09-05T12:46:19.788Z,25.31
2018-09-05T12:48:46.702Z,25.32
2018-09-05T12:51:13.645Z,25.15
2018-09-05T12:53:40.601Z,25.07
2018-09-05T12:56:07.544Z,25.61
2018-09-05T12:58:34.436Z,25.68
2018-09-05T13:01:01.394Z,25.55
2018-09-05T13:03:28.329Z,25.43
2018-09-05T13:05:55.221Z,25.26
2018-09-05T13:08:22.142Z,24.96
2018-09-05T13:10:49.071Z,25.27
2018-09-05T13:13:15.997Z,25.26
2018-09-05T13:15:42.919Z,24.70
2018-09-05T13:18:09.837Z,25.35
2018-09-05T13:20:36.769Z,25.94
2018-09-05T13:23:03.695Z,25.59
2018-09-05T13:25:30.590Z,25.55
2018-09-05T13:27:57.506Z,25.47
2018-09-05T13:30:24.453Z,25.41
2018-09-05T13:32:51.395Z,25.31
2018-09-05T13:35:18.320Z,25.33
2018-09-05T13:37:45.221Z,25.63
2018-09-05T13:40:12.186Z,25.44
2018-09-05T13:42:39.158Z,25.17
2018-09-05T13:45:06.144Z,24.99
2018-09-05T13:47:33.018Z,25.00
2018-09-05T13:50:00.241Z,24.81
2018-09-05T13:52:27.153Z,24.59
2018-09-05T13:54:54.084Z,24.70
2018-09-05T13:57:21.019Z,24.58
2018-09-05T13:59:47.985Z,24.84
2018-09-05T14:02:14.848Z,24.76
2018-09-05T14:04:41.797Z,24.40
2018-09-05T14:07:08.702Z,24.05
2018-09-05T14:09:35.662Z,24.12
2018-09-05T14:12:02.593Z,23.84
2018-09-05T14:14:29.529Z,23.57
2018-09-05T14:16:56.462Z,23.30
2018-09-05T14:19:23.367Z,23.20
2018-09-05T14:21:50.283Z,23.47
2018-09-05T14:24:17.261Z,23.17
2018-09-05T14:26:44.177Z,22.97
2018-09-05T14:29:11.067Z,22.95
2018-09-05T14:31:38.058Z,22.88
2018-09-05T14:34:05.034Z,22.81
2018-09-05T14:36:32.375Z,22.79
2018-09-05T14:38:59.296Z,22.70
2018-09-05T14:41:26.225Z,22.66
2018-09-05T14:43:53.133Z,22.81
2018-09-05T14:46:20.054Z,23.07
2018-09-05T14:48:46.971Z,23.38
2018-09-05T14:51:13.939Z,23.33
2018-09-05T14:53:40.851Z,23.12
2018-09-05T14:56:07.785Z,23.07
2018-09-05T14:58:34.721Z,23.18
2018-09-05T15:01:01.684Z,23.11
2018-09-05T15:03:28.584Z,23.02
2018-09-05T15:05:55.494Z,23.09
2018-09-05T15:08:22.403Z,23.02
2018-09-05T15:10:49.361Z,22.85
2018-09-05T15:13:16.298Z,22.84
2018-09-05T15:15:43.230Z,22.90
2018-09-05T15:18:10.158Z,22.95
2018-09-05T15:20:37.061Z,22.98
2018-09-05T15:23:03.996Z,22.88
2018-09-05T15:25:30.943Z,22.82
2018-09-05T15:27:57.850Z,22.79
2018-09-05T15:30:24.947Z,22.89
2018-09-05T15:32:51.886Z,22.79
2018-09-05T15:35:18.813Z,22.68
2018-09-05T15:37:45.749Z,22.59
2018-09-05T15:40:12.667Z,22.56
2018-09-05T15:42:39.688Z,22.57
2018-09-05T15:45:06.613Z,22.51
2018-09-05T15:47:33.544Z,22.61
2018-09-05T15:50:00.522Z,22.67
2018-09-05T15:52:27.433Z,22.64
2018-09-05T15:54:54.347Z,22.63
2018-09-05T15:57:21.380Z,22.58
2018-09-05T15:59:48.257Z,22.51
2018-09-05T16:02:15.166Z,22.46
2018-09-05T16:04:42.073Z,22.49
2018-09-05T16:07:08.985Z,22.42
2018-09-05T16:09:35.899Z,22.40
2018-09-05T16:12:04.445Z,22.29
2018-09-05T16:14:31.446Z,22.20
2018-09-05T16:16:58.377Z,22.18
2018-09-05T16:19:25.285Z,22.16
2018-09-05T16:21:52.229Z,22.17
2018-09-05T16:24:19.097Z,22.06
2018-09-05T16:26:46.024Z,22.05
2018-09-05T16:29:12.905Z,21.98
2018-09-05T16:31:39.836Z,21.97
2018-09-05T16:34:07.210Z,21.97
2018-09-05T16:36:34.143Z,21.92
2018-09-05T16:39:01.057Z,21.86
2018-09-05T16:41:34.665Z,21.79
2018-09-05T16:44:01.571Z,21.80
2018-09-05T16:46:28.481Z,21.73
2018-09-05T16:48:55.361Z,21.64
2018-09-05T16:51:22.307Z,21.60
2018-09-05T16:53:49.181Z,21.60
2018-09-05T16:56:16.120Z,21.56
2018-09-05T16:58:43.075Z,21.49
2018-09-05T17:01:10.020Z,21.53
2018-09-05T17:03:36.962Z,21.57
2018-09-05T17:06:03.939Z,21.51
2018-09-05T17:08:30.861Z,21.46
2018-09-05T17:10:57.816Z,21.44
2018-09-05T17:13:24.797Z,21.36
2018-09-05T17:15:51.771Z,21.29
2018-09-05T17:18:18.694Z,21.31
2018-09-05T17:20:45.621Z,21.17
2018-09-05T17:23:13.031Z,21.03
2018-09-05T17:25:39.946Z,20.93
2018-09-05T17:28:07.670Z,20.84
2018-09-05T17:30:34.605Z,20.77
2018-09-05T17:33:01.542Z,20.66
2018-09-05T17:35:28.467Z,20.62
2018-09-05T17:37:55.406Z,20.55
2018-09-05T17:40:22.340Z,20.50
2018-09-05T17:42:49.737Z,20.39
2018-09-05T17:45:16.665Z,20.31
2018-09-05T17:47:43.710Z,20.24
2018-09-05T17:50:10.662Z,20.17
2018-09-05T17:52:37.610Z,20.11
2018-09-05T17:55:04.748Z,20.03
2018-09-05T17:57:31.678Z,19.97
2018-09-05T17:59:58.591Z,19.92
2018-09-05T18:02:25.578Z,19.88
2018-09-05T18:04:52.527Z,19.77
2018-09-05T18:07:19.494Z,19.70
2018-09-05T18:09:46.498Z,19.62
2018-09-05T18:12:13.629Z,19.49
2018-09-05T18:14:40.667Z,19.36
2018-09-05T18:17:07.553Z,19.25
2018-09-05T18:19:34.498Z,19.21
2018-09-05T18:22:01.422Z,19.16
2018-09-05T18:24:28.412Z,19.02
2018-09-05T18:26:55.354Z,18.95
2018-09-05T18:29:22.281Z,18.85
2018-09-05T18:31:49.210Z,18.78
2018-09-05T18:34:16.164Z,18.72
2018-09-05T18:36:43.100Z,18.70
2018-09-05T18:39:10.099Z,18.61
2018-09-05T18:41:37.345Z,18.49
2018-09-05T18:44:04.288Z,18.43
2018-09-05T18:46:31.196Z,18.39
2018-09-05T18:48:58.166Z,18.31
2018-09-05T18:51:25.110Z,18.28
2018-09-05T18:53:52.136Z,18.22
2018-09-05T18:56:19.058Z,18.13
2018-09-05T18:58:46.038Z,18.10
2018-09-05T19:01:13.001Z,18.04
2018-09-05T19:03:39.952Z,18.00
2018-09-05T19:06:06.893Z,17.98
2018-09-05T19:08:33.850Z,17.90
2018-09-05T19:11:00.758Z,17.83
2018-09-05T19:13:28.042Z,17.78
2018-09-05T19:15:54.964Z,17.71
2018-09-05T19:18:21.949Z,17.67
2018-09-05T19:20:48.868Z,17.61
2018-09-05T19:23:15.836Z,17.59
2018-09-05T19:25:42.814Z,17.55
2018-09-05T19:28:09.786Z,17.53
2018-09-05T19:30:36.787Z,17.51
2018-09-05T19:33:03.718Z,17.20
2018-09-05T19:35:30.681Z,17.44
2018-09-05T19:37:57.581Z,17.42
2018-09-05T19:40:24.525Z,17.37
2018-09-05T19:42:51.472Z,17.32
2018-09-05T19:45:18.452Z,17.27
2018-09-05T19:47:45.373Z,17.24
2018-09-05T19:50:12.397Z,17.22
2018-09-05T19:52:39.378Z,17.19
2018-09-05T19:55:06.326Z,17.18
2018-09-05T19:57:33.287Z,17.19
2018-09-05T20:00:00.215Z,17.18
2018-09-05T20:02:27.144Z,17.16
2018-09-05T20:04:54.090Z,17.15
2018-09-05T20:07:21.045Z,17.06
2018-09-05T20:09:48.268Z,17.07
2018-09-05T20:12:15.217Z,17.08
2018-09-05T20:14:42.127Z,17.03
2018-09-05T20:17:09.037Z,16.99
2018-09-05T20:19:36.134Z,16.95
2018-09-05T20:22:03.068Z,16.92
2018-09-05T20:24:30.041Z,16.90
2018-09-05T20:26:56.980Z,16.84
2018-09-05T20:29:23.918Z,16.79
2018-09-05T20:31:50.835Z,16.74
2018-09-05T20:34:17.753Z,16.67
2018-09-05T20:36:44.704Z,16.63
2018-09-05T20:39:12.266Z,16.63
2018-09-05T20:41:39.513Z,16.62
2018-09-05T20:44:06.457Z,16.57
2018-09-05T20:46:33.397Z,16.56
2018-09-05T20:49:00.336Z,16.59
2018-09-05T20:51:27.268Z,16.62
2018-09-05T20:53:55.485Z,16.62
2018-09-05T20:56:22.434Z,16.64
2018-09-05T20:58:49.560Z,16.65
2018-09-05T21:01:16.347Z,16.66
2018-09-05T21:03:43.278Z,16.63
2018-09-05T21:06:10.330Z,16.60
2018-09-05T21:08:37.277Z,16.61
2018-09-05T21:11:04.232Z,16.58
2018-09-05T21:13:31.172Z,16.56
2018-09-05T21:15:58.132Z,16.54
2018-09-05T21:18:26.022Z,16.51
2018-09-05T21:20:52.984Z,16.49
2018-09-05T21:23:19.921Z,16.13
2018-09-05T21:25:46.920Z,16.45
2018-09-05T21:28:13.821Z,16.45
2018-09-05T21:30:40.760Z,16.43
2018-09-05T21:33:07.682Z,16.40
2018-09-05T21:35:34.617Z,16.41
2018-09-05T21:38:01.543Z,16.41
2018-09-05T21:40:28.510Z,16.39
2018-09-05T21:42:55.494Z,16.34
2018-09-05T21:45:22.476Z,16.36
2018-09-05T21:47:49.413Z,16.29
2018-09-05T21:50:16.526Z,16.30
2018-09-05T21:52:43.592Z,16.29
2018-09-05T21:55:10.490Z,16.25
2018-09-05T21:57:37.585Z,16.17
2018-09-05T22:00:05.953Z,16.15
2018-09-05T22:02:32.921Z,16.15
2018-09-05T22:04:59.860Z,16.14
2018-09-05T22:07:26.798Z,16.09
2018-09-05T22:09:53.709Z,16.09
2018-09-05T22:12:20.636Z,16.13
2018-09-05T22:14:47.542Z,16.15
2018-09-05T22:17:14.585Z,16.08
2018-09-05T22:19:41.505Z,16.10
2018-09-05T22:22:08.442Z,16.12
2018-09-05T22:24:35.357Z,16.09
2018-09-05T22:27:02.289Z,16.08
2018-09-05T22:29:29.210Z,16.13
2018-09-05T22:31:56.150Z,16.10
2018-09-05T22:34:23.086Z,16.07
2018-09-05T22:36:50.065Z,16.00
2018-09-05T22:39:16.988Z,15.99
2018-09-05T22:41:43.924Z,15.99
2018-09-05T22:44:22.476Z,15.94
2018-09-05T22:47:01.009Z,15.98
2018-09-05T22:50:43.247Z,15.96
2018-09-05T22:53:26.361Z,15.89
2018-09-05T22:58:44.125Z,15.89
2018-09-05T23:03:27.370Z,15.89
2018-09-05T23:08:09.757Z,15.88
2018-09-05T23:10:48.261Z,15.82
2018-09-05T23:13:26.794Z,15.78
2018-09-05T23:16:05.329Z,15.81
2018-09-05T23:18:44.013Z,15.79
2018-09-05T23:21:16.627Z,15.79
2018-09-05T23:23:50.694Z,15.77
2018-09-05T23:26:17.633Z,15.72
2018-09-05T23:28:44.566Z,15.75
2018-09-05T23:31:11.501Z,15.74
2018-09-05T23:33:38.424Z,15.75
2018-09-05T23:36:05.572Z,15.76
2018-09-05T23:38:32.534Z,15.72
2018-09-05T23:40:59.462Z,15.72
2018-09-05T23:43:26.372Z,15.68
2018-09-05T23:45:53.353Z,15.70
2018-09-05T23:48:20.348Z,15.70
2018-09-05T23:50:47.272Z,15.69
2018-09-05T23:53:14.216Z,15.67
2018-09-05T23:55:41.166Z,15.68
2018-09-05T23:58:08.093Z,15.65
